Time;durP1;ratioP1;P1;durP2;ratioP2;P2;SDS_P1;SDS_P2;PMS_P1;PMS_P2;Temp;Humidity;BMP_temperature;BMP_pressure;BME280_temperature;BME280_humidity;BME280_pressure;Samples;Min_cycle;Max_cycle;Signal;HPM_P1;HPM_P2
2022/09/29 00:01:50;;;;;;;5.13;4.50;;;;;;;;;;5035023;28;20489;-77
2022/09/29 00:04:17;;;;;;;5.40;4.90;;;;;;;;;;5031161;28;20448;-76
2022/09/29 00:06:44;;;;;;;5.27;4.77;;;;;;;;;;5031635;28;20454;-76
2022/09/29 00:09:13;;;;;;;6.70;5.10;;;;;;;;;;5039310;28;20458;-78
2022/09/29 00:11:40;;;;;;;5.17;4.67;;;;;;;;;;5052903;28;20449;-77
2022/09/29 00:14:07;;;;;;;4.97;4.53;;;;;;;;;;5039183;28;20438;-77
2022/09/29 00:16:34;;;;;;;7.63;5.00;;;;;;;;;;5030606;28;20465;-77
2022/09/29 00:19:01;;;;;;;5.40;5.00;;;;;;;;;;5030600;28;20981;-77
2022/09/29 00:21:28;;;;;;;4.90;4.50;;;;;;;;;;5034372;28;20485;-75
2022/09/29 00:23:55;;;;;;;5.83;5.33;;;;;;;;;;5054768;28;20445;-75
2022/09/29 00:26:25;;;;;;;5.77;5.27;;;;;;;;;;5054467;28;20449;-76
2022/09/29 00:28:54;;;;;;;5.33;4.93;;;;;;;;;;5053501;28;20446;-76
2022/09/29 00:31:21;;;;;;;5.00;4.60;;;;;;;;;;5040371;28;20485;-77
2022/09/29 00:33:49;;;;;;;13.73;4.73;;;;;;;;;;5032689;28;20523;-77
2022/09/29 00:36:17;;;;;;;5.00;4.60;;;;;;;;;;5051164;28;20453;-76
2022/09/29 00:38:46;;;;;;;4.80;4.40;;;;;;;;;;5050132;28;20473;-77
2022/09/29 00:41:16;;;;;;;5.17;4.77;;;;;;;;;;5034459;28;20920;-77
2022/09/29 00:43:50;;;;;;;4.70;4.30;;;;;;;;;;5049335;28;20979;-77
2022/09/29 00:46:18;;;;;;;5.23;4.63;;;;;;;;;;5042850;28;20439;-76
2022/09/29 00:48:46;;;;;;;9.37;5.47;;;;;;;;;;5063171;28;20445;-76
2022/09/29 00:51:14;;;;;;;5.67;4.93;;;;;;;;;;5074468;28;20482;-76
2022/09/29 00:53:42;;;;;;;6.00;5.60;;;;;;;;;;5068400;28;20441;-76
2022/09/29 00:56:11;;;;;;;5.33;4.93;;;;;;;;;;5053637;28;20437;-76
2022/09/29 00:58:41;;;;;;;4.80;4.50;;;;;;;;;;5050684;28;20472;-77
2022/09/29 01:01:10;;;;;;;5.37;4.40;;;;;;;;;;5050369;28;20954;-76
2022/09/29 01:03:40;;;;;;;5.13;4.73;;;;;;;;;;5049957;28;20456;-76
2022/09/29 01:06:11;;;;;;;4.87;4.47;;;;;;;;;;5049953;28;20452;-76
2022/09/29 01:08:41;;;;;;;4.93;4.50;;;;;;;;;;5049823;28;21029;-75
2022/09/29 01:11:09;;;;;;;5.83;4.70;;;;;;;;;;5049708;28;20959;-77
2022/09/29 01:13:36;;;;;;;6.87;5.50;;;;;;;;;;5049453;28;20453;-77
2022/09/29 01:16:03;;;;;;;5.23;4.70;;;;;;;;;;5053870;28;20460;-77
2022/09/29 01:18:32;;;;;;;5.27;4.77;;;;;;;;;;5053494;28;20804;-77
2022/09/29 01:21:06;;;;;;;5.13;4.63;;;;;;;;;;5053165;28;20477;-77
2022/09/29 01:23:42;;;;;;;4.87;4.33;;;;;;;;;;5052785;28;20451;-76
2022/09/29 01:26:23;;;;;;;5.00;4.60;;;;;;;;;;5053970;28;20456;-78
2022/09/29 01:29:08;;;;;;;6.10;5.13;;;;;;;;;;5053484;28;20468;-76
2022/09/29 01:31:42;;;;;;;4.73;4.33;;;;;;;;;;5053080;28;20840;-76
2022/09/29 01:34:12;;;;;;;4.53;4.23;;;;;;;;;;5052609;28;20445;-76
2022/09/29 01:36:46;;;;;;;4.43;4.07;;;;;;;;;;5053346;28;20452;-77
2022/09/29 01:39:17;;;;;;;4.73;4.33;;;;;;;;;;5053153;28;20468;-77
2022/09/29 01:41:47;;;;;;;5.20;4.77;;;;;;;;;;5053095;28;20481;-76
2022/09/29 01:44:18;;;;;;;4.73;4.33;;;;;;;;;;5052502;28;20530;-76
2022/09/29 01:46:48;;;;;;;4.63;4.20;;;;;;;;;;5053025;28;20806;-75
2022/09/29 01:49:16;;;;;;;4.30;3.90;;;;;;;;;;5053466;28;20469;-77
2022/09/29 01:51:47;;;;;;;4.93;4.27;;;;;;;;;;5053572;28;20453;-76
2022/09/29 01:54:18;;;;;;;4.93;4.53;;;;;;;;;;5052870;28;20445;-76
2022/09/29 01:56:48;;;;;;;6.00;4.87;;;;;;;;;;5052926;28;20455;-76
2022/09/29 01:59:18;;;;;;;4.43;4.03;;;;;;;;;;5052614;28;20555;-76
2022/09/29 02:01:48;;;;;;;6.13;4.50;;;;;;;;;;5052954;28;20489;-77
2022/09/29 02:04:17;;;;;;;7.50;4.83;;;;;;;;;;5052731;28;20452;-76
2022/09/29 02:06:48;;;;;;;5.27;4.50;;;;;;;;;;5052525;28;20468;-78
2022/09/29 02:09:17;;;;;;;4.90;4.47;;;;;;;;;;5052284;28;20461;-77
2022/09/29 02:11:44;;;;;;;4.77;4.40;;;;;;;;;;5052463;28;20993;-75
2022/09/29 02:14:12;;;;;;;5.93;5.03;;;;;;;;;;5051632;28;20944;-77
2022/09/29 02:16:41;;;;;;;9.20;4.60;;;;;;;;;;5052850;28;20444;-77
2022/09/29 02:19:14;;;;;;;6.70;5.43;;;;;;;;;;5053498;28;20472;-77
2022/09/29 02:21:42;;;;;;;5.37;4.87;;;;;;;;;;5053098;28;20508;-76
2022/09/29 02:24:09;;;;;;;5.33;4.83;;;;;;;;;;5052027;28;20890;-76
2022/09/29 02:26:36;;;;;;;5.03;4.53;;;;;;;;;;5052484;28;20448;-76
2022/09/29 02:29:04;;;;;;;5.67;5.17;;;;;;;;;;5052825;28;20477;-76
2022/09/29 02:31:32;;;;;;;4.93;4.43;;;;;;;;;;5053209;28;20465;-76
2022/09/29 02:33:59;;;;;;;5.87;4.90;;;;;;;;;;5051668;28;20821;-76
2022/09/29 02:36:30;;;;;;;6.97;4.80;;;;;;;;;;5052071;28;20455;-76
2022/09/29 02:39:02;;;;;;;7.23;5.67;;;;;;;;;;5052646;28;20500;-78
2022/09/29 02:41:36;;;;;;;5.17;4.77;;;;;;;;;;5052082;28;20537;-76
2022/09/29 02:44:08;;;;;;;5.17;4.77;;;;;;;;;;5051558;28;20442;-76
2022/09/29 02:46:42;;;;;;;6.70;4.50;;;;;;;;;;5051089;28;20453;-77
2022/09/29 02:49:18;;;;;;;4.77;4.43;;;;;;;;;;5051414;28;20475;-76
2022/09/29 02:51:48;;;;;;;5.37;4.97;;;;;;;;;;5052671;28;20448;-76
2022/09/29 02:54:21;;;;;;;5.60;4.77;;;;;;;;;;5052452;28;20435;-77
2022/09/29 02:56:51;;;;;;;5.20;4.80;;;;;;;;;;5051680;28;20449;-77
2022/09/29 02:59:20;;;;;;;5.20;4.80;;;;;;;;;;5051332;28;20462;-77
2022/09/29 03:01:49;;;;;;;5.73;5.00;;;;;;;;;;5051526;28;20966;-77
2022/09/29 03:04:16;;;;;;;5.47;5.00;;;;;;;;;;5050927;28;20459;-77
2022/09/29 03:06:43;;;;;;;5.47;4.97;;;;;;;;;;5051447;28;20456;-77
2022/09/29 03:09:12;;;;;;;4.63;4.23;;;;;;;;;;5053013;28;20984;-77
2022/09/29 03:11:39;;;;;;;5.10;4.70;;;;;;;;;;5054609;28;20798;-77
2022/09/29 03:14:06;;;;;;;8.00;5.00;;;;;;;;;;5050626;28;20453;-77
2022/09/29 03:16:33;;;;;;;5.70;4.60;;;;;;;;;;5051628;28;21044;-76
2022/09/29 03:19:00;;;;;;;5.53;5.03;;;;;;;;;;5052514;28;20457;-77
2022/09/29 03:21:28;;;;;;;5.50;4.90;;;;;;;;;;5054176;28;20504;-78
2022/09/29 03:23:55;;;;;;;5.53;5.13;;;;;;;;;;5053944;28;20503;-78
2022/09/29 03:26:23;;;;;;;6.27;5.00;;;;;;;;;;5055443;28;20445;-76
2022/09/29 03:28:50;;;;;;;5.00;4.60;;;;;;;;;;5054511;28;20474;-78
2022/09/29 03:31:18;;;;;;;6.33;5.70;;;;;;;;;;5052585;28;20940;-77
2022/09/29 03:33:45;;;;;;;5.90;5.40;;;;;;;;;;5050211;28;20449;-77
2022/09/29 03:36:12;;;;;;;5.90;5.50;;;;;;;;;;5050978;28;20460;-77
2022/09/29 03:38:39;;;;;;;6.83;5.10;;;;;;;;;;5049856;28;20461;-77
2022/09/29 03:41:06;;;;;;;5.33;4.93;;;;;;;;;;5050309;28;20480;-77
2022/09/29 03:43:35;;;;;;;6.57;5.90;;;;;;;;;;5050425;28;20460;-76
2022/09/29 03:46:02;;;;;;;6.53;5.37;;;;;;;;;;5050401;28;20468;-76
2022/09/29 03:48:33;;;;;;;6.47;5.93;;;;;;;;;;5050419;28;20460;-76
2022/09/29 03:51:00;;;;;;;5.93;5.23;;;;;;;;;;5050684;28;20433;-77
2022/09/29 03:53:28;;;;;;;6.10;5.60;;;;;;;;;;5049864;28;20789;-77
2022/09/29 03:55:55;;;;;;;5.50;5.00;;;;;;;;;;5049988;28;20941;-77
2022/09/29 03:58:22;;;;;;;6.03;5.43;;;;;;;;;;5064308;28;20432;-75
2022/09/29 04:00:51;;;;;;;5.93;5.53;;;;;;;;;;5061298;28;20433;-76
2022/09/29 04:03:18;;;;;;;6.00;5.33;;;;;;;;;;5050095;28;20944;-77
2022/09/29 04:05:45;;;;;;;7.33;6.50;;;;;;;;;;5050537;28;20456;-77
2022/09/29 04:08:12;;;;;;;6.00;5.50;;;;;;;;;;5050016;28;20467;-77
2022/09/29 04:10:40;;;;;;;6.33;5.53;;;;;;;;;;5050163;28;20469;-78
2022/09/29 04:13:07;;;;;;;7.30;6.50;;;;;;;;;;5048810;28;20448;-76
2022/09/29 04:15:34;;;;;;;6.27;5.70;;;;;;;;;;5049805;28;20452;-77
2022/09/29 04:18:02;;;;;;;6.17;5.60;;;;;;;;;;5050093;28;20448;-77
2022/09/29 04:20:29;;;;;;;6.50;5.73;;;;;;;;;;5049815;28;20532;-76
2022/09/29 04:22:57;;;;;;;6.60;6.00;;;;;;;;;;5049115;28;20868;-77
2022/09/29 04:25:24;;;;;;;8.73;7.13;;;;;;;;;;5049157;28;20451;-77
2022/09/29 04:27:51;;;;;;;11.40;10.40;;;;;;;;;;5049554;28;20808;-76
2022/09/29 04:30:18;;;;;;;8.90;8.10;;;;;;;;;;5029721;28;20468;-77
2022/09/29 04:32:45;;;;;;;8.17;6.47;;;;;;;;;;5032822;28;20452;-76
2022/09/29 04:35:13;;;;;;;9.17;7.50;;;;;;;;;;5039027;28;20473;-76
2022/09/29 04:37:41;;;;;;;6.77;6.10;;;;;;;;;;5051768;28;20430;-76
2022/09/29 04:40:08;;;;;;;5.83;5.33;;;;;;;;;;5052934;28;20450;-75
2022/09/29 04:42:35;;;;;;;6.50;5.90;;;;;;;;;;5054014;28;20486;-76
2022/09/29 04:45:02;;;;;;;6.73;6.07;;;;;;;;;;5048877;28;20449;-78
2022/09/29 04:47:29;;;;;;;7.23;6.57;;;;;;;;;;5030758;28;20443;-78
2022/09/29 04:49:56;;;;;;;7.10;6.10;;;;;;;;;;5032190;28;20522;-77
2022/09/29 04:52:25;;;;;;;7.00;6.40;;;;;;;;;;5034188;28;20441;-76
2022/09/29 04:54:52;;;;;;;7.77;6.43;;;;;;;;;;5033487;28;20458;-76
2022/09/29 04:57:19;;;;;;;7.07;6.50;;;;;;;;;;5033758;28;20464;-76
2022/09/29 04:59:50;;;;;;;7.47;6.57;;;;;;;;;;5033450;28;20975;-77
2022/09/29 05:02:17;;;;;;;8.27;7.43;;;;;;;;;;5033615;28;20476;-77
2022/09/29 05:04:46;;;;;;;8.33;6.53;;;;;;;;;;5032987;28;20438;-77
2022/09/29 05:07:13;;;;;;;8.70;6.63;;;;;;;;;;5033436;28;20460;-77
2022/09/29 05:09:41;;;;;;;9.47;7.47;;;;;;;;;;5033189;28;20463;-76
2022/09/29 05:12:08;;;;;;;8.47;7.00;;;;;;;;;;5044622;28;20444;-76
2022/09/29 05:14:36;;;;;;;10.50;7.00;;;;;;;;;;5052525;28;20466;-77
2022/09/29 05:17:03;;;;;;;8.87;7.70;;;;;;;;;;5052970;28;20450;-77
2022/09/29 05:19:31;;;;;;;7.90;6.73;;;;;;;;;;5053004;28;20471;-77
2022/09/29 05:21:58;;;;;;;7.63;6.83;;;;;;;;;;5053316;28;20489;-77
2022/09/29 05:24:25;;;;;;;8.73;7.40;;;;;;;;;;5052184;28;21008;-76
2022/09/29 05:26:54;;;;;;;9.17;8.27;;;;;;;;;;5053084;28;20462;-77
2022/09/29 05:29:22;;;;;;;10.57;8.00;;;;;;;;;;5052497;28;20465;-76
2022/09/29 05:31:49;;;;;;;9.10;7.80;;;;;;;;;;5052903;28;20453;-77
2022/09/29 05:34:16;;;;;;;10.03;7.70;;;;;;;;;;5052322;28;20918;-78
2022/09/29 05:36:43;;;;;;;11.17;8.17;;;;;;;;;;5053085;28;20449;-77
2022/09/29 05:39:10;;;;;;;9.43;7.63;;;;;;;;;;5052986;28;20460;-76
2022/09/29 05:41:37;;;;;;;8.83;7.80;;;;;;;;;;5052659;28;20819;-77
2022/09/29 05:44:06;;;;;;;12.20;7.67;;;;;;;;;;5052953;28;20453;-77
2022/09/29 05:46:33;;;;;;;10.90;8.27;;;;;;;;;;5052887;28;20452;-76
2022/09/29 05:49:00;;;;;;;10.80;7.80;;;;;;;;;;5052643;28;20469;-77
2022/09/29 05:51:27;;;;;;;9.47;8.57;;;;;;;;;;5032459;28;20446;-76
2022/09/29 05:53:55;;;;;;;10.20;9.10;;;;;;;;;;5031828;28;20453;-77
2022/09/29 05:56:23;;;;;;;12.13;9.47;;;;;;;;;;5032385;28;20945;-77
2022/09/29 05:58:50;;;;;;;15.10;9.20;;;;;;;;;;5032271;28;20478;-76
2022/09/29 06:01:19;;;;;;;10.00;9.00;;;;;;;;;;5032337;28;20947;-77
2022/09/29 06:03:46;;;;;;;10.83;8.87;;;;;;;;;;5034049;28;20492;-77
2022/09/29 06:06:14;;;;;;;10.07;8.87;;;;;;;;;;5032645;28;20482;-77
2022/09/29 06:08:41;;;;;;;9.67;8.50;;;;;;;;;;5032765;28;20993;-77
2022/09/29 06:11:09;;;;;;;9.90;8.13;;;;;;;;;;5035395;28;20445;-77
2022/09/29 06:13:39;;;;;;;9.70;8.70;;;;;;;;;;5051884;28;20475;-77
2022/09/29 06:16:06;;;;;;;13.60;8.93;;;;;;;;;;5051918;28;20454;-77
2022/09/29 06:18:35;;;;;;;10.17;8.60;;;;;;;;;;5054340;28;20449;-78
2022/09/29 06:21:03;;;;;;;9.93;7.90;;;;;;;;;;5052185;28;20456;-77
2022/09/29 06:23:30;;;;;;;11.27;8.00;;;;;;;;;;5050089;28;20467;-77
2022/09/29 06:25:57;;;;;;;11.80;8.40;;;;;;;;;;5051627;28;20464;-78
2022/09/29 06:28:25;;;;;;;9.77;8.10;;;;;;;;;;5051937;28;20439;-77
2022/09/29 06:30:52;;;;;;;12.70;8.13;;;;;;;;;;5052429;28;20837;-76
2022/09/29 06:33:20;;;;;;;8.90;7.93;;;;;;;;;;5051028;28;20446;-77
2022/09/29 06:38:33;;;;;;;12.93;9.00;;;;;;;;;;5052126;28;20928;-77
2022/09/29 06:41:01;;;;;;;9.90;8.60;;;;;;;;;;5051746;28;20789;-77
2022/09/29 06:43:28;;;;;;;12.60;8.83;;;;;;;;;;5051029;28;20541;-77
2022/09/29 06:45:55;;;;;;;10.20;8.30;;;;;;;;;;5052828;28;20438;-78
2022/09/29 06:48:22;;;;;;;10.60;9.20;;;;;;;;;;5052451;28;20437;-77
2022/09/29 06:50:50;;;;;;;8.67;7.63;;;;;;;;;;5051975;28;20447;-78
2022/09/29 06:53:17;;;;;;;10.60;7.80;;;;;;;;;;5051866;28;20452;-77
2022/09/29 06:55:44;;;;;;;13.87;7.90;;;;;;;;;;5052488;28;20449;-77
2022/09/29 06:58:11;;;;;;;10.33;7.70;;;;;;;;;;5051404;28;20464;-76
2022/09/29 07:00:38;;;;;;;10.10;7.93;;;;;;;;;;5051278;28;21008;-77
2022/09/29 07:03:05;;;;;;;9.73;7.30;;;;;;;;;;5050432;28;20477;-77
2022/09/29 07:05:33;;;;;;;11.93;7.40;;;;;;;;;;5051324;28;20512;-77
2022/09/29 07:08:02;;;;;;;8.43;7.63;;;;;;;;;;5051125;28;20456;-77
2022/09/29 07:10:29;;;;;;;8.53;7.00;;;;;;;;;;5051070;28;20836;-76
2022/09/29 07:12:56;;;;;;;8.73;7.83;;;;;;;;;;5049735;28;20449;-77
2022/09/29 07:15:30;;;;;;;15.10;6.70;;;;;;;;;;5051336;28;20445;-78
2022/09/29 07:17:57;;;;;;;9.00;6.60;;;;;;;;;;5050825;28;20974;-78
2022/09/29 07:20:24;;;;;;;6.50;5.80;;;;;;;;;;5050792;28;20552;-77
2022/09/29 07:22:51;;;;;;;8.63;6.97;;;;;;;;;;5050580;28;20491;-77
2022/09/29 07:25:20;;;;;;;13.13;7.47;;;;;;;;;;5050975;28;20521;-77
2022/09/29 07:27:48;;;;;;;7.40;6.70;;;;;;;;;;5050587;28;20448;-77
2022/09/29 07:30:15;;;;;;;8.33;7.53;;;;;;;;;;5050605;28;20569;-77
2022/09/29 07:32:42;;;;;;;8.53;7.00;;;;;;;;;;5050591;28;20445;-77
2022/09/29 07:35:09;;;;;;;8.00;6.80;;;;;;;;;;5052348;28;20448;-76
2022/09/29 07:37:37;;;;;;;12.27;7.23;;;;;;;;;;5058526;28;20449;-77
2022/09/29 07:40:04;;;;;;;7.90;7.10;;;;;;;;;;5051904;28;20472;-77
2022/09/29 07:42:32;;;;;;;7.80;6.27;;;;;;;;;;5050455;28;21079;-76
2022/09/29 07:44:59;;;;;;;7.33;6.60;;;;;;;;;;5054123;28;20453;-77
2022/09/29 07:47:27;;;;;;;8.07;6.60;;;;;;;;;;5053833;28;20811;-77
2022/09/29 07:49:54;;;;;;;9.20;6.07;;;;;;;;;;5051330;28;20929;-77
2022/09/29 07:52:21;;;;;;;7.37;6.67;;;;;;;;;;5051189;28;20437;-77
2022/09/29 07:54:48;;;;;;;8.50;7.37;;;;;;;;;;5050786;28;20441;-77
2022/09/29 07:57:15;;;;;;;8.87;7.37;;;;;;;;;;5051076;28;20460;-78
2022/09/29 07:59:43;;;;;;;7.00;6.50;;;;;;;;;;5051037;28;20959;-76
2022/09/29 08:02:11;;;;;;;6.87;6.17;;;;;;;;;;5051105;28;20452;-77
2022/09/29 08:04:38;;;;;;;8.23;6.90;;;;;;;;;;5063455;28;20468;-77
2022/09/29 08:07:06;;;;;;;7.20;6.50;;;;;;;;;;5058495;28;20949;-77
2022/09/29 08:09:34;;;;;;;9.10;6.87;;;;;;;;;;5050951;28;20481;-77
2022/09/29 08:12:01;;;;;;;7.20;6.57;;;;;;;;;;5051115;28;20537;-77
2022/09/29 08:14:29;;;;;;;7.37;6.67;;;;;;;;;;5050893;28;20949;-77
2022/09/29 08:16:57;;;;;;;7.97;7.17;;;;;;;;;;5051644;28;20457;-78
2022/09/29 08:19:26;;;;;;;8.07;7.37;;;;;;;;;;5050566;28;20469;-77
2022/09/29 08:21:53;;;;;;;7.20;6.57;;;;;;;;;;5052158;28;21033;-78
2022/09/29 08:24:20;;;;;;;7.10;6.50;;;;;;;;;;5052540;28;20480;-77
2022/09/29 08:26:47;;;;;;;6.90;6.30;;;;;;;;;;5057315;28;20540;-78
2022/09/29 08:29:14;;;;;;;7.10;6.37;;;;;;;;;;5056086;28;20992;-78
2022/09/29 08:31:42;;;;;;;7.30;6.57;;;;;;;;;;5057133;28;20452;-77
2022/09/29 08:34:12;;;;;;;7.30;6.60;;;;;;;;;;5056726;28;20472;-77
2022/09/29 08:36:39;;;;;;;7.17;6.53;;;;;;;;;;5058961;28;20448;-78
2022/09/29 08:39:06;;;;;;;7.70;6.90;;;;;;;;;;5058989;28;20480;-78
2022/09/29 08:41:40;;;;;;;7.57;6.47;;;;;;;;;;5056901;28;20445;-77
2022/09/29 08:44:11;;;;;;;7.50;6.70;;;;;;;;;;5055742;28;20485;-77
2022/09/29 08:46:39;;;;;;;7.17;6.57;;;;;;;;;;5072142;28;20618;-77
2022/09/29 08:49:11;;;;;;;7.03;6.43;;;;;;;;;;5076749;28;20838;-76
2022/09/29 08:51:41;;;;;;;7.80;7.00;;;;;;;;;;5076306;28;20441;-76
2022/09/29 08:54:16;;;;;;;8.47;6.47;;;;;;;;;;5072234;28;20452;-77
2022/09/29 08:56:43;;;;;;;7.53;6.70;;;;;;;;;;5074383;28;20437;-76
2022/09/29 08:59:10;;;;;;;10.23;6.23;;;;;;;;;;5064337;28;20469;-78
2022/09/29 09:01:45;;;;;;;7.20;6.50;;;;;;;;;;5057770;28;20924;-75
2022/09/29 09:04:22;;;;;;;8.30;7.50;;;;;;;;;;5056003;28;20465;-78
2022/09/29 09:06:58;;;;;;;6.97;6.40;;;;;;;;;;5055631;28;20471;-77
2022/09/29 09:09:30;;;;;;;6.87;6.10;;;;;;;;;;5053507;28;20461;-78
2022/09/29 09:12:04;;;;;;;6.80;6.20;;;;;;;;;;5056444;28;20517;-76
2022/09/29 09:14:39;;;;;;;11.27;6.30;;;;;;;;;;5057240;28;20441;-77
2022/09/29 09:17:14;;;;;;;7.07;6.47;;;;;;;;;;5056889;28;20429;-78
2022/09/29 09:19:54;;;;;;;6.97;6.30;;;;;;;;;;5056734;28;20555;-77
2022/09/29 09:22:23;;;;;;;6.90;6.20;;;;;;;;;;5059060;28;20449;-77
2022/09/29 09:24:56;;;;;;;6.60;6.07;;;;;;;;;;5047738;28;20489;-77
2022/09/29 09:27:26;;;;;;;11.57;6.77;;;;;;;;;;5056182;28;20507;-77
2022/09/29 09:29:58;;;;;;;7.00;6.50;;;;;;;;;;5056028;28;20460;-78
2022/09/29 09:32:27;;;;;;;5.73;5.23;;;;;;;;;;5056146;28;20979;-76
2022/09/29 09:34:56;;;;;;;5.73;5.10;;;;;;;;;;5045467;28;20430;-77
2022/09/29 09:37:27;;;;;;;4.73;4.33;;;;;;;;;;5035261;28;20636;-77
2022/09/29 09:39:57;;;;;;;5.53;4.50;;;;;;;;;;5037632;28;20467;-78
2022/09/29 09:42:27;;;;;;;5.97;5.37;;;;;;;;;;5053873;28;20497;-76
2022/09/29 09:44:57;;;;;;;7.30;4.83;;;;;;;;;;5052021;28;20479;-77
2022/09/29 09:47:26;;;;;;;5.77;5.23;;;;;;;;;;5035098;28;20472;-77
2022/09/29 09:49:55;;;;;;;6.10;4.50;;;;;;;;;;5034375;28;20540;-78
2022/09/29 09:52:25;;;;;;;4.60;4.30;;;;;;;;;;5034107;28;20444;-77
2022/09/29 09:55:14;;;;;;;5.07;4.57;;;;;;;;;;5033763;28;20442;-79
2022/09/29 09:57:56;;;;;;;4.87;4.57;;;;;;;;;;5035168;28;20456;-78
2022/09/29 10:00:40;;;;;;;5.07;4.67;;;;;;;;;;5031201;28;20489;-79
2022/09/29 10:03:09;;;;;;;5.73;5.23;;;;;;;;;;5031753;28;20485;-78
2022/09/29 10:05:38;;;;;;;5.87;5.27;;;;;;;;;;5032696;28;20458;-78
2022/09/29 10:08:13;;;;;;;5.13;4.73;;;;;;;;;;5034097;28;20461;-76
2022/09/29 10:10:41;;;;;;;6.10;5.50;;;;;;;;;;5036707;28;20481;-77
2022/09/29 10:13:43;;;;;;;;;;;;;;;;;;;;;
2022/09/29 10:16:14;;;;;;;4.47;4.07;;;;;;;;;;5053035;28;20856;-76
2022/09/29 10:18:42;;;;;;;4.83;4.43;;;;;;;;;;5052116;28;20450;-78
2022/09/29 10:21:20;;;;;;;4.83;3.53;;;;;;;;;;5049739;28;20452;-76
2022/09/29 10:23:51;;;;;;;4.90;4.27;;;;;;;;;;5049868;28;21216;-76
2022/09/29 10:26:21;;;;;;;4.77;3.87;;;;;;;;;;5050686;28;20456;-76
2022/09/29 10:28:49;;;;;;;4.57;4.17;;;;;;;;;;5050830;28;20470;-77
2022/09/29 10:31:22;;;;;;;4.17;3.63;;;;;;;;;;5051091;28;20442;-76
2022/09/29 10:33:50;;;;;;;5.60;4.03;;;;;;;;;;5050112;28;20441;-77
2022/09/29 10:36:20;;;;;;;4.57;4.10;;;;;;;;;;5050208;28;20500;-75
2022/09/29 10:38:47;;;;;;;4.13;3.83;;;;;;;;;;5049810;28;20495;-79
2022/09/29 10:41:17;;;;;;;6.40;5.00;;;;;;;;;;5049670;28;20452;-77
2022/09/29 10:43:44;;;;;;;5.43;4.70;;;;;;;;;;5050917;28;20470;-77
2022/09/29 10:46:27;;;;;;;4.73;4.33;;;;;;;;;;5051251;28;20430;-75
2022/09/29 10:49:09;;;;;;;4.00;3.70;;;;;;;;;;5050209;28;20492;-77
2022/09/29 10:51:36;;;;;;;4.70;4.30;;;;;;;;;;5049439;28;20445;-77
2022/09/29 10:54:08;;;;;;;3.60;3.30;;;;;;;;;;5049476;28;20764;-75
2022/09/29 10:56:35;;;;;;;4.70;4.13;;;;;;;;;;5049479;28;20477;-77
2022/09/29 10:59:03;;;;;;;8.13;5.13;;;;;;;;;;5049366;28;20472;-76
2022/09/29 11:01:31;;;;;;;4.67;4.23;;;;;;;;;;5049334;28;20442;-77
2022/09/29 11:04:02;;;;;;;6.07;4.90;;;;;;;;;;5047722;28;20492;-76
2022/09/29 11:06:31;;;;;;;4.37;3.93;;;;;;;;;;5045898;28;20454;-80
2022/09/29 11:09:00;;;;;;;5.87;3.87;;;;;;;;;;5048826;28;20529;-76
2022/09/29 11:11:28;;;;;;;4.07;3.67;;;;;;;;;;5050480;28;20456;-76
2022/09/29 11:13:55;;;;;;;4.97;4.10;;;;;;;;;;5048254;28;20445;-77
2022/09/29 11:16:26;;;;;;;3.43;3.23;;;;;;;;;;5049128;28;20460;-77
2022/09/29 11:18:57;;;;;;;3.50;3.20;;;;;;;;;;5048657;28;20466;-76
2022/09/29 11:21:39;;;;;;;3.80;3.50;;;;;;;;;;5049268;28;20429;-76
2022/09/29 11:24:10;;;;;;;2.97;2.70;;;;;;;;;;5039316;28;21012;-77
2022/09/29 11:26:38;;;;;;;2.77;2.57;;;;;;;;;;5049141;28;20434;-78
2022/09/29 11:29:18;;;;;;;4.37;2.97;;;;;;;;;;5048567;28;20519;-76
2022/09/29 11:31:49;;;;;;;3.40;3.00;;;;;;;;;;5048988;28;20481;-77
2022/09/29 11:34:31;;;;;;;3.43;2.80;;;;;;;;;;5048134;28;20437;-76
2022/09/29 11:37:05;;;;;;;4.47;2.53;;;;;;;;;;5047494;28;20456;-78
2022/09/29 11:39:52;;;;;;;2.90;2.07;;;;;;;;;;5049532;28;20457;-76
2022/09/29 11:42:25;;;;;;;3.90;3.60;;;;;;;;;;5048912;28;20472;-79
2022/09/29 11:44:58;;;;;;;6.30;2.50;;;;;;;;;;5048263;28;20481;-75
2022/09/29 11:47:39;;;;;;;2.13;1.93;;;;;;;;;;5050991;28;20437;-76
2022/09/29 11:50:20;;;;;;;2.43;2.23;;;;;;;;;;5050499;28;20541;-77
2022/09/29 11:52:56;;;;;;;2.10;1.90;;;;;;;;;;5048436;28;20433;-76
2022/09/29 11:55:31;;;;;;;3.40;2.60;;;;;;;;;;5050187;28;20448;-77
2022/09/29 11:58:03;;;;;;;2.60;2.40;;;;;;;;;;5050035;28;20459;-76
2022/09/29 12:00:37;;;;;;;3.23;2.40;;;;;;;;;;5049968;28;20561;-77
2022/09/29 12:03:18;;;;;;;2.90;2.70;;;;;;;;;;5048690;28;20444;-78
2022/09/29 12:05:51;;;;;;;2.43;2.23;;;;;;;;;;5050425;28;20441;-75
2022/09/29 12:08:25;;;;;;;3.53;2.20;;;;;;;;;;5047650;28;20446;-76
2022/09/29 12:10:59;;;;;;;3.00;2.17;;;;;;;;;;5049958;28;20529;-76
2022/09/29 12:13:31;;;;;;;3.13;2.50;;;;;;;;;;5049368;28;20555;-75
2022/09/29 12:16:03;;;;;;;3.13;2.20;;;;;;;;;;5051046;28;20472;-76
2022/09/29 12:18:33;;;;;;;5.13;2.20;;;;;;;;;;5050040;28;20449;-75
2022/09/29 12:21:01;;;;;;;3.03;2.60;;;;;;;;;;5049472;28;20449;-76
2022/09/29 12:23:30;;;;;;;3.40;2.47;;;;;;;;;;5048123;28;20469;-76
2022/09/29 12:26:01;;;;;;;2.57;2.43;;;;;;;;;;5047645;28;20445;-75
2022/09/29 12:28:31;;;;;;;3.43;2.10;;;;;;;;;;5047605;28;20445;-75
2022/09/29 12:31:01;;;;;;;4.63;2.00;;;;;;;;;;5047677;28;20445;-76
2022/09/29 12:33:32;;;;;;;3.23;2.10;;;;;;;;;;5047159;28;20445;-75
2022/09/29 12:36:42;;;;;;;2.60;2.40;;;;;;;;;;5048016;28;20540;-75
2022/09/29 12:38:54;;;;;;;2.40;2.13;;;;;;;;;;5047250;28;20461;-76
2022/09/29 12:41:24;;;;;;;4.10;2.40;;;;;;;;;;5047716;28;20441;-75
2022/09/29 12:43:55;;;;;;;2.53;1.83;;;;;;;;;;5047000;28;20478;-75
2022/09/29 12:46:25;;;;;;;2.43;1.87;;;;;;;;;;5053053;28;20454;-76
2022/09/29 12:48:57;;;;;;;3.33;2.37;;;;;;;;;;5068471;28;20944;-76
2022/09/29 12:51:29;;;;;;;2.33;2.13;;;;;;;;;;5069623;28;20505;-76
2022/09/29 12:54:03;;;;;;;2.40;2.20;;;;;;;;;;5058394;28;20447;-75
2022/09/29 12:56:35;;;;;;;2.63;2.43;;;;;;;;;;5049840;28;20451;-75
2022/09/29 12:59:05;;;;;;;3.67;2.07;;;;;;;;;;5049113;28;20473;-75
2022/09/29 13:01:35;;;;;;;3.80;2.40;;;;;;;;;;5049363;28;20923;-77
2022/09/29 13:04:20;;;;;;;2.90;2.33;;;;;;;;;;5048153;28;20568;-76
2022/09/29 13:06:57;;;;;;;5.57;2.13;;;;;;;;;;5048235;28;20460;-75
2022/09/29 13:09:31;;;;;;;2.17;2.07;;;;;;;;;;5047547;28;20472;-75
2022/09/29 13:12:06;;;;;;;4.23;2.03;;;;;;;;;;5051741;28;20446;-76
2022/09/29 13:14:51;;;;;;;2.80;2.57;;;;;;;;;;5051898;28;20441;-75
2022/09/29 13:17:23;;;;;;;2.43;2.23;;;;;;;;;;5052252;28;20449;-77
2022/09/29 13:20:01;;;;;;;3.63;2.13;;;;;;;;;;5051617;28;20453;-75
2022/09/29 13:22:43;;;;;;;3.97;2.10;;;;;;;;;;5051007;28;20452;-76
2022/09/29 13:25:18;;;;;;;4.77;2.13;;;;;;;;;;5050618;28;20976;-75
2022/09/29 13:27:47;;;;;;;2.60;2.33;;;;;;;;;;5050999;28;20484;-76
2022/09/29 13:30:16;;;;;;;3.20;2.20;;;;;;;;;;5050620;28;20465;-75
2022/09/29 13:32:45;;;;;;;2.90;2.43;;;;;;;;;;5050127;28;20441;-76
2022/09/29 13:35:16;;;;;;;5.20;2.23;;;;;;;;;;5050544;28;20504;-75
2022/09/29 13:37:44;;;;;;;2.90;2.63;;;;;;;;;;5050782;28;20527;-75
2022/09/29 13:40:18;;;;;;;2.70;2.50;;;;;;;;;;5050391;28;20498;-75
2022/09/29 13:42:47;;;;;;;2.93;2.60;;;;;;;;;;5050287;28;20414;-76
2022/09/29 13:45:15;;;;;;;2.67;2.43;;;;;;;;;;5050401;28;20558;-74
2022/09/29 13:47:46;;;;;;;2.70;2.27;;;;;;;;;;5050578;28;20818;-76
2022/09/29 13:50:32;;;;;;;3.67;2.27;;;;;;;;;;5050531;28;20458;-76
2022/09/29 13:53:14;;;;;;;2.40;2.20;;;;;;;;;;5049918;28;20452;-75
2022/09/29 13:55:51;;;;;;;2.57;2.40;;;;;;;;;;5050480;28;20438;-75
2022/09/29 13:58:25;;;;;;;3.00;2.60;;;;;;;;;;5050508;28;20862;-75
2022/09/29 14:00:53;;;;;;;2.30;2.10;;;;;;;;;;5050226;28;20956;-76
2022/09/29 14:03:25;;;;;;;4.70;2.10;;;;;;;;;;5049696;28;20972;-75
2022/09/29 14:05:54;;;;;;;3.33;2.63;;;;;;;;;;5049846;28;20859;-76
2022/09/29 14:08:26;;;;;;;3.93;2.80;;;;;;;;;;5049866;28;20456;-75
2022/09/29 14:10:59;;;;;;;3.30;2.50;;;;;;;;;;5048922;28;20508;-75
2022/09/29 14:13:28;;;;;;;3.80;2.30;;;;;;;;;;5030077;28;20722;-76
2022/09/29 14:16:02;;;;;;;3.60;2.43;;;;;;;;;;5030248;28;20953;-75
2022/09/29 14:18:32;;;;;;;2.47;2.10;;;;;;;;;;5030288;28;20433;-77
2022/09/29 14:21:00;;;;;;;2.87;2.20;;;;;;;;;;5029771;28;20458;-76
2022/09/29 14:23:51;;;;;;;4.10;2.57;;;;;;;;;;5029468;28;20447;-75
2022/09/29 14:26:37;;;;;;;2.63;2.33;;;;;;;;;;5019609;28;20490;-75
2022/09/29 14:29:06;;;;;;;2.37;2.17;;;;;;;;;;5029757;28;20898;-76
2022/09/29 14:31:33;;;;;;;2.50;2.23;;;;;;;;;;5030030;28;20541;-77
2022/09/29 14:34:02;;;;;;;4.83;2.33;;;;;;;;;;5029252;28;20458;-75
2022/09/29 14:36:33;;;;;;;2.63;2.43;;;;;;;;;;5030461;28;20504;-77
2022/09/29 14:39:00;;;;;;;2.80;2.50;;;;;;;;;;5029819;28;20478;-74
2022/09/29 14:41:31;;;;;;;2.80;2.50;;;;;;;;;;5029905;28;20446;-76
2022/09/29 14:43:59;;;;;;;3.10;2.63;;;;;;;;;;5029336;28;20546;-76
2022/09/29 14:52:51;;;;;;;2.73;2.50;;;;;;;;;;4987159;28;20415;-74
2022/09/29 14:55:22;;;;;;;3.10;2.40;;;;;;;;;;4989071;28;20444;-75
2022/09/29 14:58:00;;;;;;;3.27;2.60;;;;;;;;;;5016361;28;20864;-76
2022/09/29 15:00:32;;;;;;;4.10;2.83;;;;;;;;;;5031407;28;20528;-76
2022/09/29 15:03:01;;;;;;;3.10;2.90;;;;;;;;;;5030082;28;20534;-74
2022/09/29 15:05:30;;;;;;;3.73;3.17;;;;;;;;;;5030651;28;20814;-77
2022/09/29 15:07:57;;;;;;;9.43;8.43;;;;;;;;;;5029770;28;20457;-75
2022/09/29 15:10:26;;;;;;;3.17;2.87;;;;;;;;;;5029210;28;20506;-75